Time;durP1;ratioP1;P1;durP2;ratioP2;P2;SDS_P1;SDS_P2;PMS_P1;PMS_P2;Temp;Humidity;BMP_temperature;BMP_pressure;BME280_temperature;BME280_humidity;BME280_pressure;Samples;Min_cycle;Max_cycle;Signal;HPM_P1;HPM_P2
2022/06/15 00:01:56;;;;;;;;;;;;;;;14.43;100.00;98709.93;1636723;86;20769;-85
2022/06/15 00:04:22;;;;;;;;;;;;;;;14.39;100.00;98715.57;1643728;85;20269;-84
2022/06/15 00:06:48;;;;;;;;;;;;;;;14.32;100.00;98715.67;1637124;86;21249;-84
2022/06/15 00:09:14;;;;;;;;;;;;;;;14.28;100.00;98716.41;1636392;86;24362;-84
2022/06/15 00:11:41;;;;;;;;;;;;;;;14.25;100.00;98710.05;1648178;85;20239;-84
2022/06/15 00:14:09;;;;;;;;;;;;;;;14.22;100.00;98715.11;1638854;85;24806;-83
2022/06/15 00:16:35;;;;;;;;;;;;;;;14.16;100.00;98711.64;1634913;86;22035;-88
2022/06/15 00:19:02;;;;;;;;;;;;;;;14.12;100.00;98715.97;1639438;85;21088;-89
2022/06/15 00:21:28;;;;;;;;;;;;;;;14.08;100.00;98718.45;1638545;86;24552;-89
2022/06/15 00:23:56;;;;;;;;;;;;;;;14.01;100.00;98718.13;1642450;86;20231;-89
2022/06/15 00:26:22;;;;;;;;;;;;;;;13.98;100.00;98720.16;1640615;85;24746;-84
2022/06/15 00:28:48;;;;;;;;;;;;;;;13.98;100.00;98720.99;1637974;86;20274;-89
2022/06/15 00:31:14;;;;;;;;;;;;;;;13.97;100.00;98723.73;1637543;86;21668;-89
2022/06/15 00:33:40;;;;;;;;;;;;;;;13.96;100.00;98723.41;1638352;85;24424;-89
2022/06/15 00:36:08;;;;;;;;;;;;;;;13.94;100.00;98720.05;1639577;86;20835;-85
2022/06/15 00:38:39;;;;;;;;;;;;;;;13.93;100.00;98721.83;1654339;84;24767;-84
2022/06/15 00:41:06;;;;;;;;;;;;;;;13.94;100.00;98718.73;1664065;84;21970;-84
2022/06/15 00:43:36;;;;;;;;;;;;;;;13.86;100.00;98710.11;1672153;85;26078;-84
2022/06/15 00:46:04;;;;;;;;;;;;;;;13.63;100.00;98706.68;1670215;85;24635;-84
2022/06/15 00:48:31;;;;;;;;;;;;;;;13.59;100.00;98705.22;1671127;83;20289;-84
2022/06/15 00:50:57;;;;;;;;;;;;;;;13.65;100.00;98704.74;1671338;85;24828;-84
2022/06/15 00:53:23;;;;;;;;;;;;;;;13.68;100.00;98701.89;1642238;86;20767;-85
2022/06/15 00:55:51;;;;;;;;;;;;;;;13.62;100.00;98698.42;1630259;87;26169;-88
2022/06/15 00:58:17;;;;;;;;;;;;;;;13.56;100.00;98705.95;1632290;86;25102;-84
2022/06/15 01:00:43;;;;;;;;;;;;;;;13.49;100.00;98703.42;1617876;87;20479;-84
2022/06/15 01:03:10;;;;;;;;;;;;;;;13.25;100.00;98697.80;1619123;87;20243;-88
2022/06/15 01:05:52;;;;;;;;;;;;;;;13.01;100.00;98697.00;1629464;86;22000;-89
2022/06/15 01:08:26;;;;;;;;;;;;;;;12.95;100.00;98698.30;1643540;86;25846;-84
2022/06/15 01:11:00;;;;;;;;;;;;;;;12.87;100.00;98701.95;1602298;87;25583;-84
2022/06/15 01:13:31;;;;;;;;;;;;;;;12.91;100.00;98703.42;1618137;87;20204;-84
2022/06/15 01:16:15;;;;;;;;;;;;;;;12.94;100.00;98700.55;1630310;86;25504;-84
2022/06/15 01:18:58;;;;;;;;;;;;;;;12.87;100.00;98696.70;1653771;86;22013;-84
2022/06/15 01:21:35;;;;;;;;;;;;;;;12.89;100.00;98701.85;1601895;87;25979;-85
2022/06/15 01:24:23;;;;;;;;;;;;;;;12.91;100.00;98696.86;1627520;86;24601;-85
2022/06/15 01:26:56;;;;;;;;;;;;;;;12.92;100.00;98702.48;1641129;86;20298;-85
2022/06/15 01:29:27;;;;;;;;;;;;;;;12.85;100.00;98705.20;1599922;87;24941;-85
2022/06/15 01:31:54;;;;;;;;;;;;;;;12.80;100.00;98702.08;1633391;86;22106;-85
2022/06/15 01:34:34;;;;;;;;;;;;;;;12.90;100.00;98704.84;1641334;85;26504;-85
2022/06/15 01:37:17;;;;;;;;;;;;;;;13.06;100.00;98707.16;1600733;87;24605;-83
2022/06/15 01:39:54;;;;;;;;;;;;;;;13.18;100.00;98701.84;1635060;86;20213;-84
2022/06/15 01:42:22;;;;;;;;;;;;;;;13.30;100.00;98697.45;1646484;86;24254;-85
2022/06/15 01:44:53;;;;;;;;;;;;;;;13.40;100.00;98702.35;1634832;86;22125;-85
2022/06/15 01:47:21;;;;;;;;;;;;;;;13.44;100.00;98695.05;1631198;86;26004;-86
2022/06/15 01:49:58;;;;;;;;;;;;;;;13.38;100.00;98694.58;1645872;86;23834;-85
2022/06/15 01:52:25;;;;;;;;;;;;;;;13.31;100.00;98696.00;1631583;87;20532;-85
2022/06/15 01:54:53;;;;;;;;;;;;;;;13.31;100.00;98695.19;1647166;86;24901;-88
2022/06/15 01:57:20;;;;;;;;;;;;;;;13.28;100.00;98691.46;1631136;87;21913;-88
2022/06/15 01:59:48;;;;;;;;;;;;;;;13.15;100.00;98694.66;1644421;86;25961;-85
2022/06/15 02:02:25;;;;;;;;;;;;;;;12.94;100.00;98696.61;1600415;88;24538;-85
2022/06/15 02:04:53;;;;;;;;;;;;;;;12.67;100.00;98691.27;1627045;86;20237;-85
2022/06/15 02:07:21;;;;;;;;;;;;;;;12.46;100.00;98682.72;1642421;86;24770;-85
2022/06/15 02:09:52;;;;;;;;;;;;;;;12.28;100.00;98689.78;1640118;86;22183;-85
2022/06/15 02:12:19;;;;;;;;;;;;;;;12.14;100.00;98685.55;1597772;87;50690;-86
2022/06/15 02:14:47;;;;;;;;;;;;;;;12.20;100.00;98686.89;1615999;87;24517;-88
2022/06/15 02:17:24;;;;;;;;;;;;;;;12.41;100.00;98696.66;1634150;86;20339;-89
2022/06/15 02:19:52;;;;;;;;;;;;;;;12.52;100.00;98695.88;1612726;87;203967;-88
2022/06/15 02:22:20;;;;;;;;;;;;;;;12.60;100.00;98696.13;1650212;86;21972;-89
2022/06/15 02:24:47;;;;;;;;;;;;;;;12.60;100.00;98694.01;1631925;87;25984;-85
2022/06/15 02:27:14;;;;;;;;;;;;;;;12.51;100.00;98687.63;1616816;87;25491;-86
2022/06/15 02:29:45;;;;;;;;;;;;;;;12.38;100.00;98694.24;1613621;87;20172;-89
2022/06/15 02:32:11;;;;;;;;;;;;;;;12.30;100.00;98691.83;1601113;88;24845;-90
2022/06/15 02:34:38;;;;;;;;;;;;;;;12.09;100.00;98683.73;1638333;86;21936;-85
2022/06/15 02:37:05;;;;;;;;;;;;;;;11.90;100.00;98680.73;1673321;84;26041;-85
2022/06/15 02:39:31;;;;;;;;;;;;;;;11.75;100.00;98686.59;1639294;85;24679;-84
2022/06/15 02:41:58;;;;;;;;;;;;;;;11.71;100.00;98687.73;1628981;86;20187;-85
2022/06/15 02:44:26;;;;;;;;;;;;;;;11.85;100.00;98688.92;1630177;86;25404;-86
2022/06/15 02:46:53;;;;;;;;;;;;;;;12.04;100.00;98688.00;1631071;86;22218;-86
2022/06/15 02:49:18;;;;;;;;;;;;;;;12.16;100.00;98685.78;1629293;87;26038;-86
2022/06/15 02:51:55;;;;;;;;;;;;;;;12.26;100.00;98690.38;1630279;87;20870;-90
2022/06/15 02:54:26;;;;;;;;;;;;;;;12.29;100.00;98683.11;1628600;86;21295;-90
2022/06/15 02:56:52;;;;;;;;;;;;;;;12.23;100.00;98683.56;1630671;86;24923;-89
2022/06/15 02:59:18;;;;;;;;;;;;;;;12.24;100.00;98690.48;1630380;86;21930;-89
2022/06/15 03:01:44;;;;;;;;;;;;;;;12.31;100.00;98692.20;1627960;87;26019;-85
2022/06/15 03:04:10;;;;;;;;;;;;;;;12.29;100.00;98693.61;1629252;86;20902;-89
2022/06/15 03:06:42;;;;;;;;;;;;;;;12.33;100.00;98692.94;1628519;87;20942;-89
2022/06/15 03:09:10;;;;;;;;;;;;;;;12.37;100.00;98687.34;1629877;87;24923;-89
2022/06/15 03:11:39;;;;;;;;;;;;;;;12.50;100.00;98689.89;1629866;86;21979;-85
2022/06/15 03:14:04;;;;;;;;;;;;;;;12.60;100.00;98685.62;1630752;87;26030;-85
2022/06/15 03:16:33;;;;;;;;;;;;;;;12.68;100.00;98685.91;1630070;87;20878;-85
2022/06/15 03:19:01;;;;;;;;;;;;;;;12.74;100.00;98693.81;1630464;86;20247;-85
2022/06/15 03:21:27;;;;;;;;;;;;;;;12.81;100.00;98698.50;1628865;87;25478;-85
2022/06/15 03:23:55;;;;;;;;;;;;;;;12.78;100.00;98697.41;1630518;87;21996;-85
2022/06/15 03:26:27;;;;;;;;;;;;;;;12.76;100.00;98704.58;1629840;86;26237;-84
2022/06/15 03:28:53;;;;;;;;;;;;;;;12.80;100.00;98706.48;1629616;87;24527;-89
2022/06/15 03:31:19;;;;;;;;;;;;;;;12.83;100.00;98705.77;1628872;86;20291;-89
2022/06/15 03:33:45;;;;;;;;;;;;;;;12.88;100.00;98710.20;1610095;88;20236;-90
2022/06/15 03:36:12;;;;;;;;;;;;;;;12.98;100.00;98713.81;1630354;86;21944;-89
2022/06/15 03:38:38;;;;;;;;;;;;;;;13.16;100.00;98712.10;1635011;85;26096;-89
2022/06/15 03:41:04;;;;;;;;;;;;;;;13.37;100.00;98714.41;1637136;86;20294;-89
2022/06/15 03:43:40;;;;;;;;;;;;;;;13.61;100.00;98723.05;1726635;80;187099;-85
2022/06/15 03:46:06;;;;;;;;;;;;;;;13.80;100.00;98719.32;1727152;81;42096;-85
2022/06/15 03:48:32;;;;;;;;;;;;;;;13.99;100.00;98717.88;1728716;81;43531;-88
2022/06/15 03:51:01;;;;;;;;;;;;;;;14.21;100.00;98712.11;1733817;81;29848;-85
2022/06/15 03:53:27;;;;;;;;;;;;;;;14.47;100.00;98710.03;1732681;81;88634;-85
2022/06/15 03:55:53;;;;;;;;;;;;;;;14.63;100.00;98706.50;1733233;81;20228;-85
2022/06/15 03:58:27;;;;;;;;;;;;;;;14.82;100.00;98706.31;1739043;81;20308;-86
2022/06/15 04:00:53;;;;;;;;;;;;;;;14.99;100.00;98705.75;1732177;81;21967;-85
2022/06/15 04:03:20;;;;;;;;;;;;;;;15.12;100.00;98709.02;1729163;81;21015;-85
2022/06/15 04:05:50;;;;;;;;;;;;;;;15.29;100.00;98708.91;1731238;81;24526;-85
2022/06/15 04:08:35;;;;;;;;;;;;;;;15.45;100.00;98708.80;1731513;81;20488;-85
2022/06/15 04:11:58;;;;;;;;;;;;;;;15.65;100.00;98703.66;1724194;83;25578;-85
2022/06/15 04:13:41;;;;;;;;;;;;;;;15.90;100.00;98705.84;1721421;82;22762;-89
2022/06/15 04:16:08;;;;;;;;;;;;;;;16.16;100.00;98708.34;1697467;83;26062;-89
2022/06/15 04:18:35;;;;;;;;;;;;;;;16.35;100.00;98710.67;1711236;82;25236;-89
2022/06/15 04:21:01;;;;;;;;;;;;;;;16.47;100.00;98714.88;1726218;81;20349;-90
2022/06/15 04:23:27;;;;;;;;;;;;;;;16.64;100.00;98716.36;1736068;81;20767;-85
2022/06/15 04:26:00;;;;;;;;;;;;;;;16.80;100.00;98711.84;1702812;83;21963;-85
2022/06/15 04:28:30;;;;;;;;;;;;;;;16.97;100.00;98715.59;1700554;83;26039;-86
2022/06/15 04:30:55;;;;;;;;;;;;;;;17.13;100.00;98712.72;1722977;81;24520;-85
2022/06/15 04:33:23;;;;;;;;;;;;;;;17.23;100.00;98708.77;1726099;82;20757;-85
2022/06/15 04:35:49;;;;;;;;;;;;;;;17.31;100.00;98712.00;1726053;82;24805;-86
2022/06/15 04:38:18;;;;;;;;;;;;;;;17.37;100.00;98708.78;1726490;82;20315;-90
2022/06/15 04:40:44;;;;;;;;;;;;;;;17.38;100.00;98710.47;1695450;83;26048;-90
2022/06/15 04:43:10;;;;;;;;;;;;;;;17.42;100.00;98713.16;1669881;83;23630;-85
2022/06/15 04:45:36;;;;;;;;;;;;;;;17.43;100.00;98712.19;1727400;81;20842;-86
2022/06/15 04:48:03;;;;;;;;;;;;;;;17.42;100.00;98710.52;1703401;83;20412;-86
2022/06/15 04:50:29;;;;;;;;;;;;;;;17.32;100.00;98708.38;1726265;81;22084;-85
2022/06/15 04:52:55;;;;;;;;;;;;;;;17.25;100.00;98708.11;1697322;83;25976;-85
2022/06/15 04:55:22;;;;;;;;;;;;;;;17.27;100.00;98707.98;1725435;81;24503;-84
2022/06/15 04:57:59;;;;;;;;;;;;;;;17.25;100.00;98710.76;1725514;81;20267;-84
2022/06/15 05:00:26;;;;;;;;;;;;;;;17.24;100.00;98710.41;1736768;81;24747;-84
2022/06/15 05:02:52;;;;;;;;;;;;;;;17.18;100.00;98704.87;1701510;83;21975;-85
2022/06/15 05:05:18;;;;;;;;;;;;;;;17.08;100.00;98704.38;1700217;83;21195;-85
2022/06/15 05:07:45;;;;;;;;;;;;;;;16.98;100.00;98702.72;1724767;81;20859;-85
2022/06/15 05:10:13;;;;;;;;;;;;;;;16.86;100.00;98698.55;1722939;81;20322;-85
2022/06/15 05:12:39;;;;;;;;;;;;;;;16.75;100.00;98702.17;1704938;83;25821;-85
2022/06/15 05:15:05;;;;;;;;;;;;;;;16.63;100.00;98695.38;1703255;83;20278;-85
2022/06/15 05:17:32;;;;;;;;;;;;;;;16.54;100.00;98698.80;1697037;83;25802;-85
2022/06/15 05:19:58;;;;;;;;;;;;;;;16.43;100.00;98698.92;1697008;83;24368;-85
2022/06/15 05:22:29;;;;;;;;;;;;;;;16.30;100.00;98700.53;1723258;83;20262;-85
2022/06/15 05:24:56;;;;;;;;;;;;;;;16.25;100.00;98706.70;1719736;83;24932;-85
2022/06/15 05:27:21;;;;;;;;;;;;;;;16.24;100.00;98705.87;1726494;82;22006;-85
2022/06/15 05:29:47;;;;;;;;;;;;;;;16.25;100.00;98705.39;1696701;83;26077;-89
2022/06/15 05:32:16;;;;;;;;;;;;;;;16.24;100.00;98701.91;1697564;83;21263;-89
2022/06/15 05:34:42;;;;;;;;;;;;;;;16.24;100.00;98706.35;1696545;83;20224;-90
2022/06/15 05:37:08;;;;;;;;;;;;;;;16.24;100.00;98707.19;1702126;83;20839;-90
2022/06/15 05:39:34;;;;;;;;;;;;;;;16.25;100.00;98706.22;1694044;83;20603;-90
2022/06/15 05:42:00;;;;;;;;;;;;;;;16.27;100.00;98712.19;1723976;82;20982;-89
2022/06/15 05:47:01;;;;;;;;;;;;;;;16.37;100.00;98713.52;1688528;83;200376;-85
2022/06/15 05:49:30;;;;;;;;;;;;;;;16.45;100.00;98704.92;1678316;84;81896;-84
2022/06/15 05:51:56;;;;;;;;;;;;;;;16.52;100.00;98706.05;1709292;84;21996;-86
2022/06/15 05:54:22;;;;;;;;;;;;;;;16.59;100.00;98713.30;1695829;84;21013;-86
2022/06/15 05:56:48;;;;;;;;;;;;;;;16.62;100.00;98715.69;1697064;83;24681;-85
2022/06/15 05:59:14;;;;;;;;;;;;;;;16.68;100.00;98707.69;1695035;83;20274;-85
2022/06/15 06:01:43;;;;;;;;;;;;;;;16.73;100.00;98705.47;1695646;83;24757;-86
2022/06/15 06:04:11;;;;;;;;;;;;;;;16.71;100.00;98710.88;1702775;83;22078;-85
2022/06/15 06:06:40;;;;;;;;;;;;;;;16.72;100.00;98710.39;1691282;84;23582;-85
2022/06/15 06:09:09;;;;;;;;;;;;;;;16.76;100.00;98707.81;1693888;84;20266;-84
2022/06/15 06:11:39;;;;;;;;;;;;;;;16.80;100.00;98714.48;1697398;84;20253;-84
2022/06/15 06:14:08;;;;;;;;;;;;;;;16.87;100.00;98706.35;1696873;84;24810;-85
2022/06/15 06:16:35;;;;;;;;;;;;;;;16.92;100.00;98709.41;1709059;84;22844;-84
2022/06/15 06:19:01;;;;;;;;;;;;;;;16.91;100.00;98711.70;1709443;84;26205;-84
2022/06/15 06:21:27;;;;;;;;;;;;;;;16.77;100.00;98710.81;1696964;84;20270;-85
2022/06/15 06:23:55;;;;;;;;;;;;;;;16.60;100.00;98709.69;1695927;84;20857;-86
2022/06/15 06:26:22;;;;;;;;;;;;;;;16.54;100.00;98712.02;1698029;84;24803;-90
2022/06/15 06:28:48;;;;;;;;;;;;;;;16.63;100.00;98709.91;1692917;84;22159;-86
2022/06/15 06:31:14;;;;;;;;;;;;;;;16.66;100.00;98717.06;1697624;83;21064;-90
2022/06/15 06:33:40;;;;;;;;;;;;;;;16.66;100.00;98714.91;1696340;84;20871;-90
2022/06/15 06:36:07;;;;;;;;;;;;;;;16.71;100.00;98720.61;1699597;84;20603;-90
2022/06/15 06:38:35;;;;;;;;;;;;;;;16.70;100.00;98726.38;1698428;83;24785;-86
2022/06/15 06:41:01;;;;;;;;;;;;;;;16.83;100.00;98718.67;1695543;84;22003;-90
2022/06/15 06:43:27;;;;;;;;;;;;;;;16.96;100.00;98724.04;1710162;81;20969;-85
2022/06/15 06:45:53;;;;;;;;;;;;;;;16.92;100.00;98720.47;1725457;82;20244;-84
2022/06/15 06:48:18;;;;;;;;;;;;;;;16.80;100.00;98718.45;1728348;81;20664;-84
2022/06/15 06:50:44;;;;;;;;;;;;;;;16.75;100.00;98720.67;1727697;82;20247;-85
2022/06/15 06:53:12;;;;;;;;;;;;;;;16.70;100.00;98720.26;1725135;81;21960;-86
2022/06/15 06:55:38;;;;;;;;;;;;;;;16.70;100.00;98721.58;1724614;82;26057;-86
2022/06/15 06:58:04;;;;;;;;;;;;;;;16.69;100.00;98715.97;1725251;81;24359;-85
2022/06/15 07:00:31;;;;;;;;;;;;;;;16.72;100.00;98713.04;1726640;81;20173;-90
2022/06/15 07:03:01;;;;;;;;;;;;;;;16.78;100.00;98716.45;1728291;81;25621;-85
2022/06/15 07:05:30;;;;;;;;;;;;;;;16.90;100.00;98715.83;1729079;82;22025;-84
2022/06/15 07:07:59;;;;;;;;;;;;;;;16.92;100.00;98719.98;1728283;81;26108;-90
2022/06/15 07:10:26;;;;;;;;;;;;;;;17.07;100.00;98719.89;1726296;81;24468;-90
2022/06/15 07:12:55;;;;;;;;;;;;;;;17.19;100.00;98725.87;1727979;81;20547;-86
2022/06/15 07:15:21;;;;;;;;;;;;;;;17.32;100.00;98721.61;1728511;81;24439;-85
2022/06/15 07:17:47;;;;;;;;;;;;;;;17.32;100.00;98722.45;1727296;82;20854;-90
2022/06/15 07:20:13;;;;;;;;;;;;;;;17.36;100.00;98723.83;1725394;81;20928;-90
2022/06/15 07:22:39;;;;;;;;;;;;;;;17.35;100.00;98723.47;1729270;81;20882;-90
2022/06/15 07:25:06;;;;;;;;;;;;;;;17.41;100.00;98716.78;1726057;82;20233;-90
2022/06/15 07:27:34;;;;;;;;;;;;;;;17.49;100.00;98722.20;1729298;81;24911;-90
2022/06/15 07:30:03;;;;;;;;;;;;;;;17.60;100.00;98711.97;1728323;82;22188;-85
2022/06/15 07:32:29;;;;;;;;;;;;;;;17.78;100.00;98715.53;1725966;81;26217;-85
2022/06/15 07:34:54;;;;;;;;;;;;;;;17.86;100.00;98720.91;1725009;82;20280;-85
2022/06/15 07:37:21;;;;;;;;;;;;;;;17.84;100.00;98717.08;1726602;81;20323;-85
2022/06/15 07:39:47;;;;;;;;;;;;;;;17.87;100.00;98715.97;1725676;82;25043;-84
2022/06/15 07:42:14;;;;;;;;;;;;;;;17.97;100.00;98712.78;1726605;81;20755;-86
2022/06/15 07:44:44;;;;;;;;;;;;;;;18.04;99.80;98715.20;1699220;82;26078;-86
2022/06/15 07:49:57;;;;;;;;;;;;;;;18.42;100.00;98714.14;1700753;83;20231;-86
2022/06/15 07:52:25;;;;;;;;;;;;;;;18.63;100.00;98721.83;1698481;83;24393;-86
2022/06/15 07:54:51;;;;;;;;;;;;;;;18.72;99.77;98715.13;1693817;83;22053;-86
2022/06/15 07:57:17;;;;;;;;;;;;;;;18.89;100.00;98712.13;1696149;83;21045;-86
2022/06/15 07:59:43;;;;;;;;;;;;;;;19.05;100.00;98709.61;1661728;84;24456;-90
2022/06/15 08:02:09;;;;;;;;;;;;;;;19.18;99.86;98710.05;1698762;83;20326;-89
2022/06/15 08:04:36;;;;;;;;;;;;;;;19.34;99.69;98709.83;1698960;83;25385;-86
2022/06/15 08:07:04;;;;;;;;;;;;;;;19.45;99.60;98702.47;1697991;83;21947;-86
2022/06/15 08:09:30;;;;;;;;;;;;;;;19.58;99.20;98705.52;1695066;84;26063;-85
2022/06/15 08:14:47;;;;;;;;;;;;;;;19.73;97.89;98702.30;1702588;83;20261;-86
2022/06/15 08:17:15;;;;;;;;;;;;;;;19.76;97.02;98695.33;1697746;83;25638;-86
2022/06/15 08:19:43;;;;;;;;;;;;;;;19.70;96.13;98698.13;1674334;84;22082;-86
2022/06/15 08:22:10;;;;;;;;;;;;;;;19.67;95.46;98698.45;1700120;84;26286;-86
2022/06/15 08:24:36;;;;;;;;;;;;;;;19.78;95.37;98697.34;1690627;84;24455;-85
2022/06/15 08:27:03;;;;;;;;;;;;;;;19.87;94.83;98701.20;1708669;83;20277;-86
2022/06/15 08:29:29;;;;;;;;;;;;;;;20.05;94.36;98706.43;1694673;83;24800;-90
2022/06/15 08:31:57;;;;;;;;;;;;;;;20.18;93.76;98704.16;1693334;84;22007;-89
2022/06/15 08:34:28;;;;;;;;;;;;;;;20.33;93.13;98706.56;1700937;84;26720;-90
2022/06/15 08:36:55;;;;;;;;;;;;;;;20.24;91.65;98706.64;1698972;84;24523;-86
2022/06/15 08:39:21;;;;;;;;;;;;;;;20.33;91.28;98713.20;1665485;85;20608;-86
2022/06/15 08:41:58;;;;;;;;;;;;;;;20.43;90.80;98708.58;1698164;83;20250;-90
2022/06/15 08:44:43;;;;;;;;;;;;;;;20.54;90.17;98712.75;1697962;83;22060;-87
2022/06/15 08:47:31;;;;;;;;;;;;;;;20.71;89.58;98710.46;1697832;83;26746;-86
2022/06/15 08:52:52;;;;;;;;;;;;;;;20.87;87.63;98703.83;1699625;83;20339;-85
2022/06/15 08:55:19;;;;;;;;;;;;;;;20.99;87.09;98702.16;1662352;84;24833;-85
2022/06/15 08:57:53;;;;;;;;;;;;;;;21.05;86.58;98710.32;1697135;82;21949;-89
2022/06/15 09:00:21;;;;;;;;;;;;;;;21.08;85.67;98707.31;1696559;83;26614;-85
2022/06/15 09:03:01;;;;;;;;;;;;;;;21.09;84.49;98710.31;1699398;83;25338;-85
2022/06/15 09:05:45;;;;;;;;;;;;;;;20.99;82.95;98703.00;1697238;84;20209;-85
2022/06/15 09:08:16;;;;;;;;;;;;;;;20.86;81.41;98700.82;1700345;84;24706;-86
2022/06/15 09:10:44;;;;;;;;;;;;;;;21.02;80.70;98703.15;1694560;83;22092;-85
2022/06/15 09:13:22;;;;;;;;;;;;;;;21.19;80.12;98710.16;1694083;83;26028;-85
2022/06/15 09:15:53;;;;;;;;;;;;;;;21.31;79.73;98708.00;1696011;84;24416;-85
2022/06/15 09:18:21;;;;;;;;;;;;;;;21.39;79.30;98705.31;1698493;84;20209;-85
2022/06/15 09:21:00;;;;;;;;;;;;;;;21.45;78.80;98701.97;1707315;83;24507;-85
2022/06/15 09:23:37;;;;;;;;;;;;;;;21.44;78.08;98706.47;1698377;83;22006;-90
2022/06/15 09:26:05;;;;;;;;;;;;;;;21.52;77.51;98708.30;1680152;83;26007;-89
2022/06/15 09:28:40;;;;;;;;;;;;;;;21.57;77.03;98708.61;1697531;83;24537;-90
2022/06/15 09:31:10;;;;;;;;;;;;;;;21.73;76.71;98710.40;1681870;84;20212;-90
2022/06/15 09:33:42;;;;;;;;;;;;;;;21.67;75.67;98706.59;1692933;83;24733;-86
2022/06/15 09:36:19;;;;;;;;;;;;;;;21.70;75.28;98704.93;1692958;83;22025;-86
2022/06/15 09:38:45;;;;;;;;;;;;;;;21.85;74.98;98705.87;1695489;84;26078;-86
2022/06/15 09:41:22;;;;;;;;;;;;;;;21.82;73.96;98706.20;1656149;85;20811;-90
2022/06/15 09:44:07;;;;;;;;;;;;;;;21.84;73.24;98705.54;1694915;83;20235;-85
2022/06/15 09:46:53;;;;;;;;;;;;;;;21.50;70.87;98699.63;1708878;82;24945;-85
2022/06/15 09:49:26;;;;;;;;;;;;;;;21.32;69.86;98699.02;1674183;85;22100;-85
2022/06/15 09:51:58;;;;;;;;;;;;;;;21.26;69.26;98700.02;1709089;83;26614;-85
2022/06/15 09:54:26;;;;;;;;;;;;;;;21.53;70.00;98700.14;1713908;82;25204;-90
2022/06/15 09:56:52;;;;;;;;;;;;;;;21.68;70.23;98695.77;1710163;82;20362;-85
2022/06/15 09:59:19;;;;;;;;;;;;;;;21.74;70.06;98691.59;1711965;82;20805;-85
2022/06/15 10:01:47;;;;;;;;;;;;;;;21.87;70.17;98692.39;1713374;83;21944;-89
2022/06/15 10:04:18;;;;;;;;;;;;;;;21.95;69.96;98691.88;1717060;82;26131;-89
2022/06/15 10:06:48;;;;;;;;;;;;;;;22.01;69.56;98689.02;1696271;83;24426;-86
2022/06/15 10:09:16;;;;;;;;;;;;;;;22.10;69.33;98687.97;1714681;82;20312;-86
2022/06/15 10:11:47;;;;;;;;;;;;;;;22.12;68.83;98685.97;1761313;80;24759;-90
2022/06/15 10:14:18;;;;;;;;;;;;;;;22.02;67.92;98681.36;1753075;80;23378;-85
2022/06/15 10:16:45;;;;;;;;;;;;;;;22.12;67.86;98681.97;1757183;80;25984;-90
2022/06/15 10:19:12;;;;;;;;;;;;;;;22.20;67.22;98667.78;1752426;81;24447;-90
2022/06/15 10:21:40;;;;;;;;;;;;;;;22.26;66.84;98664.39;1756317;80;20175;-86
2022/06/15 10:24:19;;;;;;;;;;;;;;;22.41;66.52;98663.98;1754829;80;24763;-90
2022/06/15 10:26:50;;;;;;;;;;;;;;;22.59;66.56;98665.84;1761229;80;22068;-86
2022/06/15 10:29:19;;;;;;;;;;;;;;;22.69;66.18;98661.13;1759686;80;26776;-86
2022/06/15 10:32:02;;;;;;;;;;;;;;;22.73;65.52;98662.46;1758388;80;24416;-89
2022/06/15 10:34:30;;;;;;;;;;;;;;;22.74;65.05;98664.12;1758464;80;20267;-90
2022/06/15 10:36:57;;;;;;;;;;;;;;;22.86;64.89;98660.00;1763113;80;24614;-84
2022/06/15 10:39:25;;;;;;;;;;;;;;;22.91;64.32;98662.95;1762954;80;22101;-84
2022/06/15 10:41:52;;;;;;;;;;;;;;;22.90;63.68;98664.50;1758958;80;26338;-85
2022/06/15 10:44:20;;;;;;;;;;;;;;;22.89;63.02;98661.50;1755071;80;24489;-85
2022/06/15 10:46:50;;;;;;;;;;;;;;;23.02;62.67;98664.90;1760606;79;20443;-85
2022/06/15 10:49:20;;;;;;;;;;;;;;;23.12;62.46;98656.96;1758719;80;24875;-89
2022/06/15 10:51:50;;;;;;;;;;;;;;;23.16;61.98;98654.74;1759269;80;22133;-89
2022/06/15 10:54:23;;;;;;;;;;;;;;;22.97;60.53;98653.91;1756641;80;26039;-86
2022/06/15 11:02:32;;;;;;;;;;;;;;;22.59;58.69;98643.67;1753826;80;24732;-89
2022/06/15 11:05:06;;;;;;;;;;;;;;;22.77;58.60;98645.07;1759050;80;22095;-89
2022/06/15 11:07:38;;;;;;;;;;;;;;;22.68;57.92;98637.28;1752044;80;26075;-89
2022/06/15 11:10:04;;;;;;;;;;;;;;;22.73;57.81;98641.11;1757599;80;25146;-90
2022/06/15 11:12:31;;;;;;;;;;;;;;;22.77;57.80;98635.73;1757323;80;20451;-86
2022/06/15 11:14:59;;;;;;;;;;;;;;;22.87;57.82;98639.48;1757224;81;25426;-86
2022/06/15 11:20:19;;;;;;;;;;;;;;;22.99;57.26;98639.88;1756169;80;26072;-90
2022/06/15 11:22:47;;;;;;;;;;;;;;;22.89;56.62;98636.97;1747833;80;24504;-85
2022/06/15 11:25:15;;;;;;;;;;;;;;;22.83;56.14;98635.02;1755377;80;20213;-86
2022/06/15 11:27:55;;;;;;;;;;;;;;;22.77;55.68;98626.39;1757265;80;24824;-90
2022/06/15 11:30:38;;;;;;;;;;;;;;;22.81;55.41;98629.52;1752151;79;22083;-86
2022/06/15 11:33:18;;;;;;;;;;;;;;;22.70;54.85;98626.74;1754191;80;26689;-87
2022/06/15 11:36:00;;;;;;;;;;;;;;;22.71;54.64;98623.10;1755473;80;24453;-88
2022/06/15 11:38:28;;;;;;;;;;;;;;;22.93;54.92;98622.75;1755846;81;20224;-86
2022/06/15 11:40:56;;;;;;;;;;;;;;;22.96;54.67;98617.06;1759578;80;24757;-87
2022/06/15 11:43:33;;;;;;;;;;;;;;;22.90;54.26;98624.45;1756855;80;22754;-87
2022/06/15 11:46:10;;;;;;;;;;;;;;;22.78;53.72;98629.39;1757478;81;25956;-86
2022/06/15 11:48:45;;;;;;;;;;;;;;;22.71;53.36;98617.77;1757340;80;24654;-85
2022/06/15 11:51:15;;;;;;;;;;;;;;;22.75;53.42;98617.73;1756006;80;20217;-84
2022/06/15 11:54:00;;;;;;;;;;;;;;;22.67;52.97;98621.78;1758763;80;24847;-90
2022/06/15 11:56:28;;;;;;;;;;;;;;;22.62;52.74;98620.16;1757330;81;22025;-87
2022/06/15 11:58:58;;;;;;;;;;;;;;;22.93;53.33;98619.58;1757712;80;26851;-87
2022/06/15 12:01:40;;;;;;;;;;;;;;;23.22;53.70;98618.80;1754709;80;24447;-88
2022/06/15 12:04:24;;;;;;;;;;;;;;;23.46;53.92;98618.23;1760266;80;20868;-86
2022/06/15 12:07:14;;;;;;;;;;;;;;;23.59;53.69;98615.25;1758262;80;24998;-90
2022/06/15 12:09:43;;;;;;;;;;;;;;;23.59;53.16;98615.25;1755569;80;22105;-89
2022/06/15 12:15:07;;;;;;;;;;;;;;;23.85;53.03;98615.25;1755261;80;24569;-86
2022/06/15 12:17:37;;;;;;;;;;;;;;;23.86;52.40;98613.73;1756538;80;20379;-91
2022/06/15 12:20:08;;;;;;;;;;;;;;;23.80;51.86;98612.31;1757062;80;24762;-89
2022/06/15 12:22:39;;;;;;;;;;;;;;;23.84;51.79;98606.41;1756332;80;21997;-90
2022/06/15 12:25:06;;;;;;;;;;;;;;;23.83;51.40;98602.09;1757427;80;25945;-89
2022/06/15 12:27:51;;;;;;;;;;;;;;;23.82;51.07;98606.28;1757445;80;24623;-89
2022/06/15 12:30:28;;;;;;;;;;;;;;;23.93;51.01;98608.48;1756912;80;20266;-89
2022/06/15 12:33:08;;;;;;;;;;;;;;;23.92;50.68;98610.83;1757165;80;25045;-90
2022/06/15 12:35:54;;;;;;;;;;;;;;;24.04;50.75;98603.98;1758343;80;21912;-87
2022/06/15 12:38:21;;;;;;;;;;;;;;;24.05;50.47;98609.66;1755585;80;25965;-90
2022/06/15 12:40:52;;;;;;;;;;;;;;;23.99;50.10;98603.22;1755227;80;24964;-87
2022/06/15 12:43:35;;;;;;;;;;;;;;;23.93;49.61;98605.80;1761038;80;20380;-87
2022/06/15 12:46:09;;;;;;;;;;;;;;;23.73;48.97;98597.52;1762411;80;24808;-87
2022/06/15 12:48:54;;;;;;;;;;;;;;;23.69;48.85;98597.58;1729086;81;20182;-87
2022/06/15 12:51:27;;;;;;;;;;;;;;;23.72;48.86;98598.56;1760526;80;25990;-87
2022/06/15 12:54:01;;;;;;;;;;;;;;;23.73;48.61;98594.34;1759758;80;24488;-85
2022/06/15 12:56:35;;;;;;;;;;;;;;;23.59;48.11;98596.54;1764227;80;20301;-85
2022/06/15 12:59:03;;;;;;;;;;;;;;;23.58;47.95;98597.55;1764878;80;24065;-85
2022/06/15 13:01:40;;;;;;;;;;;;;;;23.81;48.10;98593.42;1736762;80;22073;-89
2022/06/15 13:04:08;;;;;;;;;;;;;;;24.03;48.38;98597.80;1765774;80;26144;-85
2022/06/15 13:06:35;;;;;;;;;;;;;;;24.12;48.31;98595.83;1762227;80;41013;-90
2022/06/15 13:09:08;;;;;;;;;;;;;;;24.23;48.61;98593.20;1762766;80;20620;-90
2022/06/15 13:11:38;;;;;;;;;;;;;;;24.37;48.81;98594.50;1773326;80;25394;-87
2022/06/15 13:14:12;;;;;;;;;;;;;;;24.31;48.33;98590.41;1756003;80;22149;-84
2022/06/15 13:16:40;;;;;;;;;;;;;;;24.12;47.74;98591.31;1764446;80;25981;-90